Time;durP1;ratioP1;P1;durP2;ratioP2;P2;SDS_P1;SDS_P2;PMS_P1;PMS_P2;Temp;Humidity;BMP_temperature;BMP_pressure;BME280_temperature;BME280_humidity;BME280_pressure;Samples;Min_cycle;Max_cycle;Signal;HPM_P1;HPM_P2
2023/08/07 00:02:18;;;;;;;;;;;;;;;20.85;57.39;101037.63;5064914;28;19928;-60
2023/08/07 00:04:43;;;;;;;;;;;;;;;20.83;57.23;101029.69;5063649;28;19920;-60
2023/08/07 00:07:08;;;;;;;;;;;;;;;20.83;57.16;101032.41;5064479;28;19916;-60
2023/08/07 00:09:33;;;;;;;;;;;;;;;20.83;56.97;101032.41;5064253;28;19976;-60
2023/08/07 00:11:59;;;;;;;;;;;;;;;20.82;57.30;101027.19;5064472;28;19917;-61
2023/08/07 00:14:24;;;;;;;;;;;;;;;20.82;56.99;101024.47;5064413;28;20000;-60
2023/08/07 00:16:49;;;;;;;;;;;;;;;20.82;57.32;101033.44;5064506;28;19948;-60
2023/08/07 00:19:14;;;;;;;;;;;;;;;20.81;57.10;101030.88;5064465;28;20011;-60
2023/08/07 00:21:39;;;;;;;;;;;;;;;20.81;57.33;101029.03;5063941;28;19928;-60
2023/08/07 00:24:05;;;;;;;;;;;;;;;20.80;57.11;101027.34;5064103;28;20035;-60
2023/08/07 00:26:32;;;;;;;;;;;;;;;20.80;57.05;101031.91;5064141;28;19916;-60
2023/08/07 00:28:57;;;;;;;;;;;;;;;20.79;57.06;101031.06;5064182;28;19917;-60
2023/08/07 00:31:22;;;;;;;;;;;;;;;20.80;56.98;101029.22;5064504;28;19959;-60
2023/08/07 00:33:51;;;;;;;;;;;;;;;20.78;57.20;101025.84;5063960;28;19917;-60
2023/08/07 00:36:16;;;;;;;;;;;;;;;20.78;57.07;101031.25;5061026;28;19924;-60
2023/08/07 00:38:41;;;;;;;;;;;;;;;20.78;57.22;101037.50;5064335;28;19916;-60
2023/08/07 00:41:08;;;;;;;;;;;;;;;20.78;57.02;101036.66;5063910;28;20657;-60
2023/08/07 00:43:33;;;;;;;;;;;;;;;20.77;57.13;101038.50;5064219;28;20383;-60
2023/08/07 00:45:58;;;;;;;;;;;;;;;20.77;56.92;101032.25;5063858;28;20008;-63
2023/08/07 00:48:23;;;;;;;;;;;;;;;20.75;56.94;101037.84;5064119;28;19920;-60
2023/08/07 00:50:48;;;;;;;;;;;;;;;20.75;57.09;101037.84;5063343;28;19917;-60
2023/08/07 00:53:14;;;;;;;;;;;;;;;20.75;56.96;101031.63;5078549;28;19912;-60
2023/08/07 00:55:39;;;;;;;;;;;;;;;20.75;56.94;101032.44;5063604;28;19917;-57
2023/08/07 00:58:04;;;;;;;;;;;;;;;20.75;57.18;101037.00;5064100;28;19943;-61
2023/08/07 01:00:32;;;;;;;;;;;;;;;20.74;57.05;101044.28;5063651;28;19917;-61
2023/08/07 01:02:57;;;;;;;;;;;;;;;20.74;57.12;101040.75;5063833;28;20887;-60
2023/08/07 01:05:24;;;;;;;;;;;;;;;20.73;57.02;101037.19;5094363;28;19924;-60
2023/08/07 01:07:51;;;;;;;;;;;;;;;20.71;57.26;101031.97;5061610;28;19913;-60
2023/08/07 01:10:16;;;;;;;;;;;;;;;20.72;57.03;101052.53;5063519;28;19917;-60
2023/08/07 01:12:48;;;;;;;;;;;;;;;20.72;56.90;101046.31;5095985;28;19916;-60
2023/08/07 01:15:17;;;;;;;;;;;;;;;20.71;56.91;101047.34;5095822;28;19923;-60
2023/08/07 01:17:43;;;;;;;;;;;;;;;20.71;56.96;101047.34;5060961;28;19921;-60
2023/08/07 01:20:08;;;;;;;;;;;;;;;20.69;57.00;101055.63;5093959;28;19921;-60
2023/08/07 01:22:33;;;;;;;;;;;;;;;20.69;56.99;101055.63;5063130;28;19921;-57
2023/08/07 01:24:58;;;;;;;;;;;;;;;20.69;57.14;101057.50;5063232;28;19987;-61
2023/08/07 01:27:24;;;;;;;;;;;;;;;20.67;56.94;101054.94;5063446;28;19923;-60
2023/08/07 01:29:55;;;;;;;;;;;;;;;20.68;57.09;101058.47;5063712;28;20284;-60
2023/08/07 01:32:22;;;;;;;;;;;;;;;20.65;57.09;101067.81;5062888;28;19976;-60
2023/08/07 01:34:47;;;;;;;;;;;;;;;20.66;56.84;101079.44;5061794;28;20263;-60
2023/08/07 01:37:12;;;;;;;;;;;;;;;20.65;57.16;101073.22;5095530;28;19924;-60
2023/08/07 01:39:38;;;;;;;;;;;;;;;20.65;57.12;101070.50;5095989;28;20281;-60
2023/08/07 01:42:04;;;;;;;;;;;;;;;20.64;56.84;101074.19;5063278;28;19970;-59
2023/08/07 01:44:29;;;;;;;;;;;;;;;20.64;57.11;101074.19;5062521;28;19971;-59
2023/08/07 01:46:55;;;;;;;;;;;;;;;20.63;56.85;101075.22;5062085;28;19921;-60
2023/08/07 01:49:20;;;;;;;;;;;;;;;20.63;56.99;101074.38;5063456;28;19952;-60
2023/08/07 01:51:45;;;;;;;;;;;;;;;20.62;57.10;101076.25;5062733;28;19917;-60
2023/08/07 01:54:10;;;;;;;;;;;;;;;20.62;57.29;101078.13;5063577;28;19913;-60
2023/08/07 01:56:35;;;;;;;;;;;;;;;20.62;57.04;101087.06;5063140;28;19920;-60
2023/08/07 01:59:01;;;;;;;;;;;;;;;20.61;57.02;101079.97;5063490;28;19917;-60
2023/08/07 02:01:26;;;;;;;;;;;;;;;20.61;57.02;101074.56;5063205;28;19956;-59
2023/08/07 02:03:51;;;;;;;;;;;;;;;20.59;56.81;101084.69;5063068;28;19920;-60
2023/08/07 02:06:16;;;;;;;;;;;;;;;20.60;56.86;101085.53;5065101;28;20009;-60
2023/08/07 02:08:41;;;;;;;;;;;;;;;20.60;57.12;101082.84;5066794;28;20468;-60
2023/08/07 02:11:07;;;;;;;;;;;;;;;20.59;57.10;101082.00;5066861;28;19985;-60
2023/08/07 02:13:32;;;;;;;;;;;;;;;20.58;56.76;101080.31;5067136;28;19955;-60
2023/08/07 02:15:57;;;;;;;;;;;;;;;20.58;57.16;101084.88;5066598;28;20429;-60
2023/08/07 02:18:22;;;;;;;;;;;;;;;20.58;56.95;101091.13;5066852;28;19999;-60
2023/08/07 02:20:48;;;;;;;;;;;;;;;20.58;57.17;101087.59;5066217;28;20370;-54
2023/08/07 02:23:13;;;;;;;;;;;;;;;20.57;56.97;101089.44;5067260;28;19924;-60
2023/08/07 02:25:38;;;;;;;;;;;;;;;20.56;57.04;101090.47;5066304;28;19921;-60
2023/08/07 02:28:03;;;;;;;;;;;;;;;20.55;56.85;101096.88;5066676;28;19919;-60
2023/08/07 02:30:30;;;;;;;;;;;;;;;20.56;57.04;101089.59;5066538;28;20030;-60
2023/08/07 02:32:55;;;;;;;;;;;;;;;20.56;57.17;101092.31;5066672;28;20011;-60
2023/08/07 02:35:20;;;;;;;;;;;;;;;20.55;57.12;101093.31;5065794;28;19916;-60
2023/08/07 02:37:45;;;;;;;;;;;;;;;20.54;57.10;101083.53;5065983;28;20023;-60
2023/08/07 02:40:13;;;;;;;;;;;;;;;20.53;56.94;101085.41;5066265;28;19913;-59
2023/08/07 02:42:38;;;;;;;;;;;;;;;20.54;57.00;101083.53;5066283;28;19926;-60
2023/08/07 02:45:04;;;;;;;;;;;;;;;20.53;56.93;101080.00;5065966;28;20025;-60
2023/08/07 02:47:29;;;;;;;;;;;;;;;20.53;57.13;101085.41;5066411;28;20441;-55
2023/08/07 02:49:54;;;;;;;;;;;;;;;20.53;57.06;101084.56;5066055;28;19913;-60
2023/08/07 02:52:19;;;;;;;;;;;;;;;20.53;56.85;101089.97;5065815;28;19917;-60
2023/08/07 02:54:45;;;;;;;;;;;;;;;20.52;56.95;101083.75;5066086;28;19924;-60
2023/08/07 02:57:10;;;;;;;;;;;;;;;20.52;57.01;101074.75;5065497;28;19916;-63
2023/08/07 02:59:35;;;;;;;;;;;;;;;20.51;56.99;101079.31;5066074;28;19917;-60
2023/08/07 03:02:00;;;;;;;;;;;;;;;20.50;56.83;101071.41;5066227;28;19960;-60
2023/08/07 03:04:25;;;;;;;;;;;;;;;20.51;56.79;101082.03;5065085;28;19916;-60
2023/08/07 03:06:51;;;;;;;;;;;;;;;20.51;56.95;101075.78;5065043;28;19924;-60
2023/08/07 03:09:16;;;;;;;;;;;;;;;20.49;56.75;101073.28;5065905;28;19924;-60
2023/08/07 03:11:41;;;;;;;;;;;;;;;20.50;56.63;101080.34;5065636;28;19923;-57
2023/08/07 03:14:06;;;;;;;;;;;;;;;20.49;56.75;101075.97;5065506;28;19921;-60
2023/08/07 03:16:31;;;;;;;;;;;;;;;20.49;56.78;101075.13;5064514;28;19917;-60
2023/08/07 03:18:57;;;;;;;;;;;;;;;20.47;56.74;101070.72;5063379;28;19923;-60
2023/08/07 03:21:22;;;;;;;;;;;;;;;20.49;57.06;101072.44;5064913;28;19952;-60
2023/08/07 03:23:47;;;;;;;;;;;;;;;20.47;56.81;101065.31;5065394;28;19931;-60
2023/08/07 03:26:12;;;;;;;;;;;;;;;20.47;56.78;101054.53;5065027;28;19972;-60
2023/08/07 03:28:38;;;;;;;;;;;;;;;20.46;56.86;101050.09;5065704;28;19972;-60
2023/08/07 03:31:03;;;;;;;;;;;;;;;20.46;56.99;101050.09;5065165;28;19970;-60
2023/08/07 03:33:28;;;;;;;;;;;;;;;20.46;56.64;101043.88;5065544;28;20679;-60
2023/08/07 03:35:54;;;;;;;;;;;;;;;20.45;56.86;101045.72;5063825;28;20428;-60
2023/08/07 03:38:19;;;;;;;;;;;;;;;20.45;56.93;101050.31;5065523;28;19972;-60
2023/08/07 03:40:44;;;;;;;;;;;;;;;20.45;56.70;101051.13;5064970;28;19921;-60
2023/08/07 03:43:09;;;;;;;;;;;;;;;20.44;56.71;101057.56;5065162;28;20400;-60
2023/08/07 03:45:35;;;;;;;;;;;;;;;20.43;56.87;101050.47;5064920;28;19913;-60
2023/08/07 03:48:00;;;;;;;;;;;;;;;20.43;56.72;101052.31;5065153;28;19913;-60
2023/08/07 03:50:25;;;;;;;;;;;;;;;20.43;56.80;101046.91;5065090;28;20279;-60
2023/08/07 03:52:50;;;;;;;;;;;;;;;20.42;56.63;101045.25;5064321;28;20298;-60
2023/08/07 03:55:16;;;;;;;;;;;;;;;20.41;56.95;101052.50;5064994;28;19936;-60
2023/08/07 03:57:41;;;;;;;;;;;;;;;20.42;56.80;101053.34;5063785;28;19917;-59
2023/08/07 04:00:07;;;;;;;;;;;;;;;20.41;56.75;101060.59;5064910;28;19913;-60
2023/08/07 04:02:32;;;;;;;;;;;;;;;20.41;56.76;101057.91;5064961;28;19928;-57
2023/08/07 04:04:57;;;;;;;;;;;;;;;20.40;56.71;101058.94;5064132;28;19927;-60
2023/08/07 04:07:22;;;;;;;;;;;;;;;20.40;56.65;101063.50;5064050;28;19924;-59
2023/08/07 04:09:48;;;;;;;;;;;;;;;20.40;56.63;101061.63;5064415;28;20393;-60
2023/08/07 04:12:13;;;;;;;;;;;;;;;20.38;56.88;101052.84;5064460;28;19920;-60
2023/08/07 04:14:38;;;;;;;;;;;;;;;20.39;56.89;101061.78;5064439;28;19920;-60
2023/08/07 04:17:03;;;;;;;;;;;;;;;20.39;57.00;101061.78;5064467;28;19921;-60
2023/08/07 04:19:28;;;;;;;;;;;;;;;20.38;56.94;101071.75;5064639;28;19917;-60
2023/08/07 04:21:54;;;;;;;;;;;;;;;20.39;56.68;101067.19;5063706;28;19928;-60
2023/08/07 04:24:19;;;;;;;;;;;;;;;20.37;56.90;101075.47;5063806;28;19917;-60
2023/08/07 04:26:44;;;;;;;;;;;;;;;20.37;56.92;101071.94;5064168;28;19924;-60
2023/08/07 04:29:09;;;;;;;;;;;;;;;20.36;57.15;101076.50;5063211;28;19916;-60
2023/08/07 04:31:34;;;;;;;;;;;;;;;20.36;56.84;101078.34;5064027;28;19916;-59
2023/08/07 04:34:00;;;;;;;;;;;;;;;20.36;56.76;101084.59;5064130;28;20019;-60
2023/08/07 04:36:25;;;;;;;;;;;;;;;20.36;57.04;101081.91;5063193;28;19921;-59
2023/08/07 04:38:50;;;;;;;;;;;;;;;20.36;56.99;101081.06;5063351;28;19924;-56
2023/08/07 04:41:15;;;;;;;;;;;;;;;20.35;56.97;101088.31;5062687;28;19925;-60
2023/08/07 04:43:42;;;;;;;;;;;;;;;20.36;56.80;101089.16;5060994;28;19928;-60
2023/08/07 04:46:08;;;;;;;;;;;;;;;20.35;56.97;101093.72;5063960;28;20361;-60
2023/08/07 04:48:33;;;;;;;;;;;;;;;20.36;56.93;101105.38;5063572;28;19921;-60
2023/08/07 04:50:59;;;;;;;;;;;;;;;20.35;57.11;101096.41;5063185;28;19972;-59
2023/08/07 04:53:24;;;;;;;;;;;;;;;20.36;57.03;101102.66;5064203;28;19934;-59
2023/08/07 04:55:49;;;;;;;;;;;;;;;20.36;56.95;101106.19;5063716;28;19935;-59
2023/08/07 04:58:14;;;;;;;;;;;;;;;20.36;57.01;101108.06;5063326;28;19939;-60
2023/08/07 05:00:39;;;;;;;;;;;;;;;20.36;57.41;101116.16;5063528;28;19925;-60
2023/08/07 05:03:05;;;;;;;;;;;;;;;20.36;57.13;101119.69;5094523;28;19921;-60
2023/08/07 05:05:30;;;;;;;;;;;;;;;20.37;57.12;101118.69;5062454;28;19917;-60
2023/08/07 05:07:58;;;;;;;;;;;;;;;20.37;57.21;101117.84;5059584;28;19989;-59
2023/08/07 05:10:23;;;;;;;;;;;;;;;20.36;57.28;101118.88;5095098;28;19913;-59
2023/08/07 05:12:48;;;;;;;;;;;;;;;20.37;57.12;101117.84;5063285;28;19974;-59
2023/08/07 05:15:13;;;;;;;;;;;;;;;20.37;57.21;101118.69;5063552;28;19970;-60
2023/08/07 05:17:39;;;;;;;;;;;;;;;20.36;57.37;101122.41;5063366;28;19917;-60
2023/08/07 05:20:05;;;;;;;;;;;;;;;20.37;57.67;101124.09;5062804;28;19925;-60
2023/08/07 05:22:30;;;;;;;;;;;;;;;20.36;57.48;101127.81;5062913;28;19925;-59
2023/08/07 05:24:55;;;;;;;;;;;;;;;20.38;57.71;101133.03;5061497;28;19927;-60
2023/08/07 05:27:21;;;;;;;;;;;;;;;20.38;57.64;101139.25;5062810;28;19962;-59
2023/08/07 05:29:46;;;;;;;;;;;;;;;20.38;57.68;101141.97;5062887;28;19917;-60
2023/08/07 05:32:12;;;;;;;;;;;;;;;20.39;57.78;101148.19;5062987;28;19976;-59
2023/08/07 05:34:37;;;;;;;;;;;;;;;20.39;57.95;101137.41;5062182;28;19921;-59
2023/08/07 05:37:03;;;;;;;;;;;;;;;20.39;57.95;101151.78;5062005;28;20315;-60
2023/08/07 05:39:28;;;;;;;;;;;;;;;20.39;58.01;101154.47;5064278;28;20291;-60
2023/08/07 05:41:54;;;;;;;;;;;;;;;20.40;58.18;101150.75;5066767;28;19944;-59
2023/08/07 05:44:19;;;;;;;;;;;;;;;20.42;58.10;101153.25;5066494;28;19928;-60
2023/08/07 05:46:44;;;;;;;;;;;;;;;20.42;57.93;101162.22;5066713;28;19924;-60
2023/08/07 05:49:10;;;;;;;;;;;;;;;20.43;57.97;101165.75;5066787;28;19913;-60
2023/08/07 05:51:35;;;;;;;;;;;;;;;20.43;58.30;101160.34;5066720;28;19924;-60
2023/08/07 05:54:00;;;;;;;;;;;;;;;20.42;57.93;101167.59;5067143;28;19913;-60
2023/08/07 05:56:25;;;;;;;;;;;;;;;20.43;58.01;101169.31;5066854;28;19968;-59
2023/08/07 05:58:50;;;;;;;;;;;;;;;20.44;58.08;101178.25;5067097;28;20003;-60
2023/08/07 06:01:17;;;;;;;;;;;;;;;20.44;58.02;101186.38;5067078;28;20408;-60
2023/08/07 06:03:42;;;;;;;;;;;;;;;20.44;58.35;101184.50;5066874;28;19982;-58
2023/08/07 06:06:07;;;;;;;;;;;;;;;20.44;58.20;101191.75;5066011;28;20051;-60
2023/08/07 06:08:34;;;;;;;;;;;;;;;20.44;58.28;101189.06;5066574;28;19913;-60
2023/08/07 06:11:03;;;;;;;;;;;;;;;20.44;58.36;101191.75;5066894;28;19936;-59
2023/08/07 06:13:28;;;;;;;;;;;;;;;20.45;58.48;101215.06;5066827;28;19943;-58
2023/08/07 06:15:54;;;;;;;;;;;;;;;20.44;58.11;101205.25;5066569;28;20285;-59
2023/08/07 06:18:19;;;;;;;;;;;;;;;20.45;58.26;101206.94;5066591;28;19920;-59
2023/08/07 06:20:44;;;;;;;;;;;;;;;20.43;58.17;101217.94;5066326;28;19932;-59
2023/08/07 06:23:09;;;;;;;;;;;;;;;20.44;58.35;101214.22;5066544;28;19921;-60
2023/08/07 06:25:35;;;;;;;;;;;;;;;20.44;58.36;101214.22;5066175;28;19952;-60
2023/08/07 06:28:00;;;;;;;;;;;;;;;20.44;58.49;101211.50;5066623;28;19923;-59
2023/08/07 06:30:25;;;;;;;;;;;;;;;20.44;58.58;101213.38;5065658;28;19924;-59
2023/08/07 06:32:50;;;;;;;;;;;;;;;20.45;58.19;101220.44;5066650;28;20464;-61
2023/08/07 06:35:16;;;;;;;;;;;;;;;20.45;58.36;101226.69;5065535;28;20263;-58
2023/08/07 06:37:41;;;;;;;;;;;;;;;20.44;58.27;101227.72;5066346;28;20343;-60
2023/08/07 06:40:06;;;;;;;;;;;;;;;20.45;58.39;101228.56;5065599;28;19920;-60
2023/08/07 06:42:31;;;;;;;;;;;;;;;20.46;58.19;101235.63;5066423;28;19982;-60
2023/08/07 06:44:57;;;;;;;;;;;;;;;20.46;58.27;101236.47;5065725;28;19921;-61
2023/08/07 06:47:22;;;;;;;;;;;;;;;20.46;57.93;101249.97;5065968;28;19912;-60
2023/08/07 06:49:47;;;;;;;;;;;;;;;20.47;57.95;101245.41;5062399;28;19917;-60
2023/08/07 06:52:13;;;;;;;;;;;;;;;20.47;58.06;101242.72;5065087;28;19912;-61
2023/08/07 06:54:38;;;;;;;;;;;;;;;20.47;58.27;101243.59;5064810;28;19969;-60
2023/08/07 06:57:03;;;;;;;;;;;;;;;20.48;58.26;101244.47;5063748;28;19924;-60
2023/08/07 06:59:28;;;;;;;;;;;;;;;20.47;58.12;101246.28;5064267;28;20698;-61
2023/08/07 07:01:53;;;;;;;;;;;;;;;20.47;58.09;101250.81;5064926;28;19921;-62
2023/08/07 07:04:19;;;;;;;;;;;;;;;20.46;58.07;101260.78;5063852;28;19929;-61
2023/08/07 07:06:44;;;;;;;;;;;;;;;20.45;57.83;101269.91;5060952;28;19913;-62
2023/08/07 07:09:09;;;;;;;;;;;;;;;20.45;57.96;101269.91;5052635;28;19921;-59
2023/08/07 07:11:34;;;;;;;;;;;;;;;20.45;57.68;101272.59;5057197;28;19913;-62
2023/08/07 07:14:00;;;;;;;;;;;;;;;20.45;57.96;101275.31;5062337;28;19923;-62
2023/08/07 07:16:25;;;;;;;;;;;;;;;20.46;57.67;101276.16;5060763;28;19948;-61
2023/08/07 07:18:50;;;;;;;;;;;;;;;20.45;57.75;101280.72;5063836;28;19917;-61
2023/08/07 07:21:16;;;;;;;;;;;;;;;20.46;57.86;101285.09;5061133;28;19924;-61
2023/08/07 07:23:41;;;;;;;;;;;;;;;20.46;57.75;101284.25;5062584;28;19916;-59
2023/08/07 07:26:06;;;;;;;;;;;;;;;20.15;57.89;101243.59;5060799;28;19920;-60
2023/08/07 07:28:31;;;;;;;;;;;;;;;20.46;57.83;101300.47;5063981;28;19917;-61
2023/08/07 07:30:57;;;;;;;;;;;;;;;20.46;57.91;101295.06;5063463;28;20148;-60
2023/08/07 07:33:22;;;;;;;;;;;;;;;20.47;57.85;101296.75;5063085;28;19924;-60
2023/08/07 07:35:47;;;;;;;;;;;;;;;20.47;57.76;101300.31;5062550;28;19921;-60
2023/08/07 07:38:13;;;;;;;;;;;;;;;20.48;57.68;101301.19;5062666;28;19921;-60
2023/08/07 07:40:38;;;;;;;;;;;;;;;20.47;57.81;101300.31;5062840;28;19954;-60
2023/08/07 07:43:04;;;;;;;;;;;;;;;20.49;57.65;101302.03;5063142;28;19927;-61
2023/08/07 07:45:29;;;;;;;;;;;;;;;20.50;57.60;101306.41;5062790;28;19940;-61
2023/08/07 07:47:54;;;;;;;;;;;;;;;20.50;58.02;101307.25;5062648;28;19963;-61
2023/08/07 07:50:20;;;;;;;;;;;;;;;20.50;57.98;101331.56;5063474;28;19927;-61
2023/08/07 07:52:45;;;;;;;;;;;;;;;20.50;57.77;101319.91;5094661;28;19917;-60
2023/08/07 07:55:10;;;;;;;;;;;;;;;20.51;57.93;101321.59;5062672;28;19944;-61
2023/08/07 07:57:35;;;;;;;;;;;;;;;20.51;57.57;101319.72;5059442;28;20266;-61
2023/08/07 08:00:01;;;;;;;;;;;;;;;20.52;57.69;101324.16;5061127;28;19924;-60
2023/08/07 08:02:26;;;;;;;;;;;;;;;20.52;57.73;101334.06;5058678;28;19932;-60
2023/08/07 08:04:52;;;;;;;;;;;;;;;20.52;57.72;101334.06;5059648;28;19916;-60
2023/08/07 08:07:17;;;;;;;;;;;;;;;20.51;57.85;101335.94;5061933;28;19917;-60
2023/08/07 08:09:42;;;;;;;;;;;;;;;20.52;57.92;101337.66;5062765;28;20410;-57
2023/08/07 08:12:08;;;;;;;;;;;;;;;20.52;57.73;101334.94;5060931;28;19921;-60
2023/08/07 08:14:33;;;;;;;;;;;;;;;20.52;57.71;101339.47;5062794;28;19917;-60
2023/08/07 08:16:58;;;;;;;;;;;;;;;20.54;58.07;101348.28;5061257;28;19912;-61
2023/08/07 08:19:23;;;;;;;;;;;;;;;20.53;58.03;101336.63;5060662;28;19913;-60
2023/08/07 08:21:48;;;;;;;;;;;;;;;20.54;58.07;101348.28;5060239;28;19924;-61
2023/08/07 08:24:14;;;;;;;;;;;;;;;20.54;58.04;101357.22;5059696;28;20006;-60
2023/08/07 08:26:39;;;;;;;;;;;;;;;20.55;57.62;101358.06;5060724;28;19921;-60
2023/08/07 08:29:05;;;;;;;;;;;;;;;20.55;57.74;101358.06;5056760;28;19924;-60
2023/08/07 08:31:30;;;;;;;;;;;;;;;20.56;58.00;101359.75;5062666;28;19913;-56
2023/08/07 08:33:56;;;;;;;;;;;;;;;20.56;57.73;101357.91;5062418;28;19923;-60
2023/08/07 08:36:21;;;;;;;;;;;;;;;20.56;58.13;101357.03;5061055;28;19921;-58
2023/08/07 08:38:48;;;;;;;;;;;;;;;20.57;57.79;101372.25;5063323;28;19951;-60
2023/08/07 08:41:13;;;;;;;;;;;;;;;20.57;57.82;101356.88;5063250;28;19955;-61
2023/08/07 08:43:38;;;;;;;;;;;;;;;20.58;57.90;101361.28;5063702;28;20569;-60
2023/08/07 08:46:04;;;;;;;;;;;;;;;20.58;58.08;101369.38;5062846;28;19919;-60
2023/08/07 08:48:31;;;;;;;;;;;;;;;20.60;57.86;101363.78;5063857;28;19927;-60
2023/08/07 08:50:56;;;;;;;;;;;;;;;20.61;57.76;101371.75;5062306;28;20285;-60
2023/08/07 08:53:22;;;;;;;;;;;;;;;20.61;57.58;101374.44;5096295;28;19912;-60
2023/08/07 08:55:47;;;;;;;;;;;;;;;20.63;57.65;101382.38;5095936;28;19912;-60
2023/08/07 08:58:13;;;;;;;;;;;;;;;20.63;57.75;101385.91;5062631;28;19920;-54
2023/08/07 09:00:39;;;;;;;;;;;;;;;20.64;57.55;101386.75;5062705;28;20497;-61
2023/08/07 09:03:04;;;;;;;;;;;;;;;20.66;57.57;101376.66;5062655;28;19928;-60
2023/08/07 09:05:30;;;;;;;;;;;;;;;20.68;57.51;101385.41;5062937;28;19924;-60
2023/08/07 09:07:56;;;;;;;;;;;;;;;20.68;57.45;101375.44;5062092;28;19917;-56
2023/08/07 09:10:21;;;;;;;;;;;;;;;20.69;57.47;101382.56;5095797;28;19919;-60
2023/08/07 09:13:05;;;;;;;;;;;;;;;20.69;57.52;101390.66;5095923;28;19923;-60
2023/08/07 09:15:31;;;;;;;;;;;;;;;20.70;57.15;101391.50;5096718;28;19995;-60
2023/08/07 09:17:56;;;;;;;;;;;;;;;20.71;57.30;101398.59;5065971;28;19971;-60
2023/08/07 09:20:22;;;;;;;;;;;;;;;20.71;57.07;101399.44;5099627;28;19924;-60
2023/08/07 09:22:48;;;;;;;;;;;;;;;20.72;57.07;101403.81;5067608;28;19928;-61
2023/08/07 09:25:13;;;;;;;;;;;;;;;20.72;57.18;101417.31;5067485;28;19913;-59
2023/08/07 09:27:38;;;;;;;;;;;;;;;20.74;57.04;101413.63;5067920;28;19916;-61
2023/08/07 09:30:04;;;;;;;;;;;;;;;20.74;56.92;101408.22;5099363;28;19935;-61
2023/08/07 09:32:30;;;;;;;;;;;;;;;20.74;57.22;101409.06;5059408;28;19943;-57
2023/08/07 09:34:55;;;;;;;;;;;;;;;20.74;57.06;101427.16;5059092;28;19917;-60
2023/08/07 09:37:20;;;;;;;;;;;;;;;20.75;56.86;101415.31;5066180;28;20326;-60
2023/08/07 09:39:46;;;;;;;;;;;;;;;20.74;56.99;101419.88;5064334;28;19917;-60
2023/08/07 09:42:15;;;;;;;;;;;;;;;20.76;56.88;101422.41;5065816;28;19927;-58
2023/08/07 09:44:40;;;;;;;;;;;;;;;20.75;56.97;101435.06;5060403;28;20032;-60
2023/08/07 09:47:18;;;;;;;;;;;;;;;20.76;56.65;101414.28;5065840;28;19917;-60
2023/08/07 09:49:43;;;;;;;;;;;;;;;20.76;56.57;101415.13;5095912;28;19913;-60
2023/08/07 09:52:09;;;;;;;;;;;;;;;20.77;56.74;101418.69;5063540;28;19917;-60
2023/08/07 09:54:35;;;;;;;;;;;;;;;20.77;56.70;101433.03;5064944;28;19913;-60
2023/08/07 09:57:04;;;;;;;;;;;;;;;20.78;56.88;101426.63;5064888;28;19920;-61
2023/08/07 09:59:29;;;;;;;;;;;;;;;20.77;56.81;101427.63;5065232;28;19928;-60
2023/08/07 10:01:54;;;;;;;;;;;;;;;20.78;56.87;101436.59;5063966;28;20325;-60
2023/08/07 10:04:21;;;;;;;;;;;;;;;20.77;56.76;101449.25;5060603;28;19925;-60
2023/08/07 10:06:46;;;;;;;;;;;;;;;20.78;56.83;101442.00;5063027;28;19920;-60
2023/08/07 10:09:11;;;;;;;;;;;;;;;20.77;56.50;101438.44;5064620;28;19912;-60
2023/08/07 10:11:37;;;;;;;;;;;;;;;20.71;56.54;101422.91;5065332;28;19939;-57
2023/08/07 10:14:02;;;;;;;;;;;;;;;20.77;56.78;101430.34;5096675;28;19917;-60
2023/08/07 10:16:28;;;;;;;;;;;;;;;20.79;56.75;101432.88;5063842;28;19994;-61
2023/08/07 10:18:53;;;;;;;;;;;;;;;20.79;56.47;101438.28;5064534;28;20702;-58
2023/08/07 10:21:18;;;;;;;;;;;;;;;20.80;56.57;101439.97;5062554;28;19994;-61
2023/08/07 10:23:43;;;;;;;;;;;;;;;20.79;56.54;101449.94;5064798;28;19970;-60
2023/08/07 10:26:08;;;;;;;;;;;;;;;20.79;56.34;101449.94;5096889;28;19921;-60
2023/08/07 10:28:37;;;;;;;;;;;;;;;20.80;56.56;101456.19;5091464;28;20394;-59
2023/08/07 10:31:03;;;;;;;;;;;;;;;20.82;56.42;101456.88;5063073;28;19912;-60
2023/08/07 10:33:28;;;;;;;;;;;;;;;20.83;56.58;101456.69;5095974;28;19933;-59
2023/08/07 10:35:53;;;;;;;;;;;;;;;20.82;56.65;101449.63;5064032;28;19938;-60
2023/08/07 10:38:19;;;;;;;;;;;;;;;20.83;56.67;101458.56;5064518;28;19913;-59
2023/08/07 10:41:00;;;;;;;;;;;;;;;20.82;56.45;101455.03;5062743;28;19916;-59
2023/08/07 10:43:27;;;;;;;;;;;;;;;20.83;56.53;101458.56;5062882;28;19921;-60
2023/08/07 10:45:52;;;;;;;;;;;;;;;20.84;56.58;101471.06;5061285;28;19919;-60
2023/08/07 10:48:18;;;;;;;;;;;;;;;20.85;56.50;101461.94;5062067;28;19987;-61
2023/08/07 10:50:49;;;;;;;;;;;;;;;20.85;56.20;101459.22;5063755;28;19979;-61
2023/08/07 10:53:21;;;;;;;;;;;;;;;20.85;56.54;101470.88;5062181;28;19913;-62
2023/08/07 10:55:47;;;;;;;;;;;;;;;20.85;56.38;101478.16;5064402;28;19966;-60
2023/08/07 10:58:25;;;;;;;;;;;;;;;20.85;56.57;101476.28;5061384;28;19955;-60
2023/08/07 11:00:51;;;;;;;;;;;;;;;20.86;56.15;101483.41;5062910;28;19916;-58
2023/08/07 11:03:20;;;;;;;;;;;;;;;20.85;56.54;101484.38;5064368;28;19943;-58
2023/08/07 11:05:45;;;;;;;;;;;;;;;20.87;56.57;101486.94;5061957;28;19939;-58
2023/08/07 11:08:11;;;;;;;;;;;;;;;20.88;56.25;101494.03;5061219;28;19921;-59
2023/08/07 11:10:36;;;;;;;;;;;;;;;20.89;56.20;101487.59;5064307;28;19944;-58
2023/08/07 11:13:01;;;;;;;;;;;;;;;20.90;56.28;101481.22;5061814;28;19923;-59
2023/08/07 11:15:27;;;;;;;;;;;;;;;20.91;56.33;101481.03;5063580;28;19947;-59
2023/08/07 11:17:52;;;;;;;;;;;;;;;20.92;56.31;101482.72;5093792;28;19944;-55
2023/08/07 11:20:18;;;;;;;;;;;;;;;20.94;56.38;101483.41;5063831;28;19925;-57
2023/08/07 11:22:44;;;;;;;;;;;;;;;20.94;55.98;101491.53;5093596;28;19924;-59
2023/08/07 11:25:11;;;;;;;;;;;;;;;20.96;56.17;101489.47;5061270;28;20030;-60
2023/08/07 11:27:36;;;;;;;;;;;;;;;20.97;56.05;101488.47;5062504;28;19927;-58
2023/08/07 11:30:01;;;;;;;;;;;;;;;20.99;56.31;101501.00;5061484;28;20352;-59
2023/08/07 11:32:27;;;;;;;;;;;;;;;20.98;55.95;101486.59;5061488;28;20436;-59
2023/08/07 11:34:52;;;;;;;;;;;;;;;20.99;55.92;101479.34;5057561;28;20559;-58
2023/08/07 11:37:17;;;;;;;;;;;;;;;20.99;56.21;101498.28;5058258;28;19920;-59
2023/08/07 11:39:42;;;;;;;;;;;;;;;20.99;56.20;101498.28;5059902;28;19921;-59
2023/08/07 11:42:07;;;;;;;;;;;;;;;21.00;56.02;101502.66;5062296;28;20827;-59
2023/08/07 11:44:33;;;;;;;;;;;;;;;21.00;55.98;101494.56;5062859;28;19920;-59
2023/08/07 11:46:58;;;;;;;;;;;;;;;21.01;55.82;101488.97;5093909;28;19955;-59
2023/08/07 11:49:23;;;;;;;;;;;;;;;21.03;56.14;101503.19;5092114;28;19913;-59
2023/08/07 11:51:49;;;;;;;;;;;;;;;21.03;56.26;101511.28;5060123;28;19912;-59
2023/08/07 11:54:14;;;;;;;;;;;;;;;21.06;56.06;101488.47;5095809;28;19916;-59
2023/08/07 11:56:40;;;;;;;;;;;;;;;21.08;56.14;101489.16;5059987;28;19970;-59
2023/08/07 11:59:06;;;;;;;;;;;;;;;21.11;55.88;101489.66;5062418;28;19920;-59
2023/08/07 12:01:31;;;;;;;;;;;;;;;21.11;55.87;101497.78;5062708;28;19951;-60
2023/08/07 12:04:05;;;;;;;;;;;;;;;21.14;56.22;101502.81;5062507;28;19981;-59
2023/08/07 12:06:31;;;;;;;;;;;;;;;21.19;55.97;101499.63;5062696;28;19987;-60
2023/08/07 12:08:56;;;;;;;;;;;;;;;21.19;56.07;101505.03;5095723;28;19913;-60
2023/08/07 12:11:21;;;;;;;;;;;;;;;21.20;55.62;101506.75;5061821;28;19919;-59
2023/08/07 12:13:47;;;;;;;;;;;;;;;21.20;55.67;101506.75;5063448;28;20401;-60
2023/08/07 12:16:16;;;;;;;;;;;;;;;21.21;55.62;101514.66;5061221;28;19986;-60
2023/08/07 12:18:48;;;;;;;;;;;;;;;21.23;55.49;101501.81;5061263;28;19972;-60
2023/08/07 12:21:14;;;;;;;;;;;;;;;21.24;55.84;101499.97;5059654;28;19936;-52
2023/08/07 12:23:39;;;;;;;;;;;;;;;21.25;55.94;101498.13;5093808;28;19917;-60
2023/08/07 12:26:06;;;;;;;;;;;;;;;21.26;55.90;101514.16;5061733;28;20422;-59
2023/08/07 12:28:32;;;;;;;;;;;;;;;21.28;55.59;101503.16;5060904;28;19917;-60